createdAt,value
2024-03-12T00:14:48.137Z,13.2
2024-03-12T00:34:53.096Z,12.8
2024-03-12T00:45:03.740Z,12.6
2024-03-12T00:55:02.719Z,12.6
2024-03-12T01:05:04.491Z,12.6
2024-03-12T01:15:13.506Z,12.4
2024-03-12T01:25:23.838Z,12.4
2024-03-12T01:35:22.707Z,12.2
2024-03-12T01:45:32.803Z,12
2024-03-12T01:55:31.739Z,12.1
2024-03-12T02:05:40.279Z,12
2024-03-12T02:15:49.241Z,11.8
2024-03-12T02:25:58.336Z,11.7
2024-03-12T02:36:06.753Z,11.5
2024-03-12T02:46:15.647Z,11.4
2024-03-12T02:56:15.999Z,11.4
2024-03-12T03:06:25.045Z,11.1
2024-03-12T03:16:33.946Z,11.1
2024-03-12T03:26:34.559Z,11
2024-03-12T03:36:43.690Z,10.9
2024-03-12T03:46:52.865Z,10.7
2024-03-12T03:56:55.732Z,10.6
2024-03-12T04:07:01.268Z,10.5
2024-03-12T04:17:05.328Z,10.5
2024-03-12T04:27:06.411Z,10.4
2024-03-12T04:37:05.739Z,10.4
2024-03-12T04:47:07.689Z,10.1
2024-03-12T04:57:10.000Z,10.2
2024-03-12T05:07:09.025Z,10.2
2024-03-12T05:17:17.953Z,10.1
2024-03-12T05:27:26.720Z,10.3
2024-03-12T05:37:36.416Z,10.1
2024-03-12T05:47:45.335Z,10.3
2024-03-12T05:57:54.105Z,10
2024-03-12T06:07:58.146Z,9.7
2024-03-12T06:17:58.282Z,9.8
2024-03-12T06:28:07.120Z,9.9
2024-03-12T06:38:15.739Z,9.9
2024-03-12T06:48:24.458Z,9.7
2024-03-12T06:58:33.074Z,9.7
2024-03-12T07:08:41.751Z,9.7
2024-03-12T07:18:51.355Z,9.8
2024-03-12T07:29:00.079Z,9.8
2024-03-12T07:39:08.699Z,10.1
2024-03-12T07:49:17.568Z,10.3
2024-03-12T07:59:19.724Z,10.7
2024-03-12T08:09:28.800Z,11.2
2024-03-12T08:19:41.423Z,12.5
2024-03-12T08:29:40.176Z,13.4
2024-03-12T08:39:50.493Z,13.6
2024-03-12T08:49:49.457Z,14.3
2024-03-12T08:59:58.348Z,14.8
2024-03-12T09:10:08.825Z,14.5
2024-03-12T09:20:10.605Z,14.7
2024-03-12T09:30:20.500Z,16
2024-03-12T09:40:21.495Z,16.4
2024-03-12T09:50:30.979Z,16.8
2024-03-12T10:00:40.459Z,16.5
2024-03-12T10:10:49.432Z,17.1
2024-03-12T10:20:54.205Z,17.7
2024-03-12T10:30:53.983Z,17.6
2024-03-12T10:41:02.618Z,17
2024-03-12T10:51:12.083Z,17.9
2024-03-12T11:01:21.545Z,17.6
2024-03-12T11:11:32.907Z,17.8
2024-03-12T11:21:33.645Z,17.7
2024-03-12T11:31:32.896Z,17.4
2024-03-12T11:41:34.301Z,18
2024-03-12T11:51:44.470Z,17.9
2024-03-12T12:01:53.409Z,17.6
2024-03-12T12:12:03.582Z,17.8
2024-03-12T12:22:05.531Z,17.7
2024-03-12T12:32:06.914Z,18.2
2024-03-12T12:42:05.877Z,18.3
2024-03-12T12:52:14.969Z,18.3
2024-03-12T13:02:15.042Z,18.5
2024-03-12T13:12:23.920Z,18.2
2024-03-12T13:22:34.104Z,18.2
2024-03-12T13:32:33.148Z,18.4
2024-03-12T13:42:43.152Z,18.7
2024-03-12T13:52:52.017Z,17.7
2024-03-12T14:02:53.453Z,18.1
2024-03-12T14:13:01.954Z,18.5
2024-03-12T14:23:11.229Z,18.3
2024-03-12T14:33:11.730Z,18.1
2024-03-12T14:43:20.328Z,18.2
2024-03-12T14:53:23.637Z,18.1
2024-03-12T15:03:24.259Z,18.2
2024-03-12T15:13:23.327Z,17.9
2024-03-12T15:23:33.393Z,17.9
2024-03-12T15:33:42.560Z,17.8
2024-03-12T15:43:46.279Z,18
2024-03-12T15:53:51.290Z,17.8
2024-03-12T16:04:00.805Z,18
2024-03-12T16:14:03.263Z,17.8
2024-03-12T16:24:02.497Z,17.4
2024-03-12T16:34:12.110Z,17.8
2024-03-12T16:44:21.285Z,17.9
2024-03-12T16:54:25.684Z,18
2024-03-12T17:04:28.096Z,17.7
2024-03-12T17:14:41.556Z,17.2
2024-03-12T17:24:40.784Z,17
2024-03-12T17:34:49.741Z,16.8
2024-03-12T17:44:50.104Z,16.5
2024-03-12T17:54:59.312Z,16.4
2024-03-12T18:05:00.695Z,16
2024-03-12T18:15:10.356Z,15.4
2024-03-12T18:25:19.299Z,15.6
2024-03-12T18:35:31.676Z,15.6
2024-03-12T18:55:33.859Z,15.9
2024-03-12T19:05:44.016Z,15.6
2024-03-12T19:15:46.892Z,15.1
2024-03-12T19:25:47.212Z,15
2024-03-12T19:35:47.545Z,15
2024-03-12T19:45:59.078Z,15
2024-03-12T20:06:07.877Z,14.5
2024-03-12T20:16:08.666Z,14.6
2024-03-12T20:26:12.523Z,14.6
2024-03-12T20:36:13.666Z,14.2
2024-03-12T20:56:28.985Z,13.8
2024-03-12T21:06:21.870Z,13.7
2024-03-12T21:16:27.121Z,13.6
2024-03-12T21:26:28.291Z,13.5
2024-03-12T21:36:33.603Z,13.5
2024-03-12T21:46:35.015Z,13.5
2024-03-12T21:56:38.051Z,13.2
2024-03-12T22:06:40.718Z,13
2024-03-12T22:16:42.353Z,13.1
2024-03-12T22:26:43.295Z,13.1
2024-03-12T22:36:52.178Z,12.7
2024-03-12T22:47:00.990Z,12.5
2024-03-12T22:57:09.884Z,12.4
2024-03-12T23:07:18.658Z,12.1
2024-03-12T23:17:27.845Z,12.2
2024-03-12T23:27:28.968Z,12
2024-03-12T23:37:37.753Z,11.9
2024-03-12T23:47:46.638Z,11.8
2024-03-12T23:57:47.877Z,11.8
